Time;durP1;ratioP1;P1;durP2;ratioP2;P2;SDS_P1;SDS_P2;PMS_P1;PMS_P2;Temp;Humidity;BMP_temperature;BMP_pressure;BME280_temperature;BME280_humidity;BME280_pressure;Samples;Min_cycle;Max_cycle;Signal;HPM_P1;HPM_P2
2023/03/25 00:00:23;;;;;;;7.47;3.47;;;;;;;14.41;100.00;101080.97;2086100;28;20432;-70
2023/03/25 00:01:45;;;;;;;7.00;3.58;;;;;;;14.45;100.00;101080.09;2076354;28;20042;-67
2023/03/25 00:03:08;;;;;;;7.53;3.80;;;;;;;14.45;100.00;101078.31;2077963;28;20104;-68
2023/03/25 00:04:29;;;;;;;9.88;3.83;;;;;;;14.48;100.00;101074.81;2076621;28;20102;-67
2023/03/25 00:05:52;;;;;;;7.35;3.47;;;;;;;14.51;100.00;101078.34;2067766;28;20579;-67
2023/03/25 00:07:13;;;;;;;8.10;3.60;;;;;;;14.54;100.00;101075.72;2076877;28;20052;-67
2023/03/25 00:08:37;;;;;;;9.50;3.35;;;;;;;14.58;100.00;101079.28;2076903;28;20052;-67
2023/03/25 00:10:00;;;;;;;7.82;3.40;;;;;;;14.60;100.00;101069.53;2069433;28;20061;-67
2023/03/25 00:11:22;;;;;;;8.38;3.55;;;;;;;14.63;100.00;101069.56;2077340;28;20061;-67
2023/03/25 00:12:43;;;;;;;7.63;3.35;;;;;;;14.65;100.00;101074.00;2086230;28;20394;-67
2023/03/25 00:14:06;;;;;;;15.13;5.00;;;;;;;14.64;100.00;101066.00;2075830;28;20053;-67
2023/03/25 00:15:28;;;;;;;14.95;4.50;;;;;;;14.63;100.00;101069.56;2077790;28;20049;-70
2023/03/25 00:16:51;;;;;;;11.98;4.65;;;;;;;14.61;100.00;101064.25;2090953;28;20131;-70
2023/03/25 00:18:17;;;;;;;9.73;4.13;;;;;;;14.61;100.00;101064.25;2073209;28;20623;-69
2023/03/25 00:19:40;;;;;;;10.95;4.38;;;;;;;14.59;100.00;101068.66;2078405;28;20064;-70
2023/03/25 00:21:04;;;;;;;12.13;4.55;;;;;;;14.56;100.00;101068.66;2080554;28;20060;-70
2023/03/25 00:22:27;;;;;;;13.13;6.13;;;;;;;14.53;100.00;101065.09;2077095;28;20049;-70
2023/03/25 00:23:51;;;;;;;13.55;6.72;;;;;;;14.52;100.00;101063.31;2069452;28;20041;-70
2023/03/25 00:25:16;;;;;;;9.57;4.75;;;;;;;14.52;100.00;101063.31;2092295;28;20570;-70
2023/03/25 00:26:41;;;;;;;9.25;3.70;;;;;;;14.54;100.00;101067.75;2076158;28;20049;-70
2023/03/25 00:28:03;;;;;;;8.25;4.05;;;;;;;14.56;100.00;101063.34;2067730;28;20076;-70
2023/03/25 00:29:26;;;;;;;8.95;3.50;;;;;;;14.59;100.00;101065.09;2061776;28;20050;-69
2023/03/25 00:30:47;;;;;;;8.75;3.83;;;;;;;14.60;100.00;101067.78;2083617;28;20554;-70
2023/03/25 00:32:10;;;;;;;8.70;3.95;;;;;;;14.63;100.00;101064.25;2079815;28;20033;-70
2023/03/25 00:33:32;;;;;;;9.48;4.13;;;;;;;14.67;100.00;101063.38;2078021;28;20163;-69
2023/03/25 00:34:54;;;;;;;10.68;4.13;;;;;;;14.68;100.00;101068.69;2080985;28;20045;-69
2023/03/25 00:36:16;;;;;;;9.07;3.92;;;;;;;14.69;100.00;101069.59;2084813;28;20049;-69
2023/03/25 00:37:38;;;;;;;9.65;4.43;;;;;;;14.70;100.00;101058.94;2073624;28;20103;-69
2023/03/25 00:39:03;;;;;;;11.88;4.47;;;;;;;14.73;100.00;101058.06;2066945;28;20113;-69
2023/03/25 00:40:24;;;;;;;13.18;4.82;;;;;;;14.75;100.00;101056.31;2077037;28;20068;-69
2023/03/25 00:41:47;;;;;;;11.18;5.20;;;;;;;14.78;100.00;101056.31;2074353;28;20046;-69
2023/03/25 00:43:10;;;;;;;10.80;5.00;;;;;;;14.82;100.00;101057.22;2081076;28;20045;-69
2023/03/25 00:44:32;;;;;;;11.93;5.78;;;;;;;14.83;100.00;101051.03;2077805;28;20053;-70
2023/03/25 00:45:55;;;;;;;8.73;4.30;;;;;;;14.84;100.00;101056.34;2080168;28;20049;-70
2023/03/25 00:47:20;;;;;;;9.55;3.58;;;;;;;14.85;100.00;101054.56;2069971;28;20137;-69
2023/03/25 00:48:43;;;;;;;10.68;4.43;;;;;;;14.85;100.00;101047.47;2075759;28;20095;-69
2023/03/25 00:50:06;;;;;;;12.63;5.15;;;;;;;14.85;100.00;101052.78;2074127;28;20049;-69
2023/03/25 00:51:30;;;;;;;13.48;5.15;;;;;;;14.87;100.00;101052.81;2083596;28;20037;-70
2023/03/25 00:52:53;;;;;;;10.18;4.72;;;;;;;14.88;100.00;101044.84;2080236;28;20052;-69
2023/03/25 00:54:20;;;;;;;7.82;4.10;;;;;;;14.87;100.00;101043.06;2069340;28;20503;-69
2023/03/25 00:55:42;;;;;;;10.32;4.30;;;;;;;14.86;100.00;101046.59;2072625;28;20110;-69
2023/03/25 00:57:04;;;;;;;10.70;4.90;;;;;;;14.85;100.00;101047.47;2075878;28;20037;-71
2023/03/25 00:58:25;;;;;;;8.43;4.03;;;;;;;14.84;100.00;101042.16;2069414;28;20152;-70
2023/03/25 00:59:48;;;;;;;8.65;4.03;;;;;;;14.79;100.00;101043.91;2074774;28;20044;-69
2023/03/25 01:01:12;;;;;;;14.23;4.32;;;;;;;14.72;100.00;101037.69;2075935;28;20048;-69
2023/03/25 01:02:34;;;;;;;14.38;4.50;;;;;;;14.66;100.00;101040.34;2076359;28;20042;-69
2023/03/25 01:03:59;;;;;;;9.90;4.20;;;;;;;14.63;100.00;101041.22;2061341;28;20058;-69
2023/03/25 01:05:21;;;;;;;10.32;4.88;;;;;;;14.61;100.00;101044.75;2072569;28;20045;-69
2023/03/25 01:06:45;;;;;;;9.23;4.53;;;;;;;14.60;100.00;101038.56;2075436;28;20053;-69
2023/03/25 01:08:07;;;;;;;9.45;4.55;;;;;;;14.59;100.00;101039.44;2069205;28;20034;-70
2023/03/25 01:09:33;;;;;;;14.18;4.80;;;;;;;14.58;100.00;101037.66;2075287;28;20053;-70
2023/03/25 01:10:56;;;;;;;10.38;4.40;;;;;;;14.59;100.00;101038.53;2074680;28;20100;-69
2023/03/25 01:12:18;;;;;;;8.02;4.82;;;;;;;14.57;100.00;101029.69;2087120;28;20517;-69
2023/03/25 01:13:42;;;;;;;11.68;5.75;;;;;;;14.56;100.00;101031.47;2072262;28;20064;-70
2023/03/25 01:15:05;;;;;;;11.10;4.93;;;;;;;14.58;100.00;101032.34;2065375;28;20112;-70
2023/03/25 01:16:28;;;;;;;11.45;4.72;;;;;;;14.58;100.00;101034.09;2074352;28;20045;-69
2023/03/25 01:17:50;;;;;;;10.52;4.70;;;;;;;14.57;100.00;101030.56;2077592;28;20152;-69
2023/03/25 01:19:13;;;;;;;11.82;4.60;;;;;;;14.55;100.00;101028.78;2076807;28;20045;-69
2023/03/25 01:20:35;;;;;;;9.77;4.43;;;;;;;14.47;100.00;101036.72;2068755;28;20045;-69
2023/03/25 01:21:57;;;;;;;11.48;3.58;;;;;;;14.39;100.00;101026.94;2075227;28;20092;-69
2023/03/25 01:23:21;;;;;;;13.35;7.75;;;;;;;14.36;100.00;101023.38;2061437;28;20125;-69
2023/03/25 01:24:44;;;;;;;13.85;7.65;;;;;;;14.34;100.00;101026.91;2074983;28;20074;-69
2023/03/25 01:26:07;;;;;;;12.60;5.85;;;;;;;14.28;100.00;101017.13;2076837;28;20056;-70
2023/03/25 01:27:29;;;;;;;11.32;7.15;;;;;;;14.27;100.00;101020.66;2074823;28;20107;-70
2023/03/25 01:28:52;;;;;;;9.45;5.60;;;;;;;14.30;100.00;101015.38;2069313;28;20058;-69
2023/03/25 01:30:16;;;;;;;9.88;4.38;;;;;;;14.35;100.00;101015.41;2067623;28;20041;-69
2023/03/25 01:31:37;;;;;;;10.15;4.57;;;;;;;14.37;100.00;101005.69;2067399;28;20510;-70
2023/03/25 01:33:00;;;;;;;9.82;5.07;;;;;;;14.38;100.00;101011.88;2072554;28;20099;-70
2023/03/25 01:34:23;;;;;;;10.68;5.00;;;;;;;14.36;100.00;101006.56;2071257;28;20077;-70
2023/03/25 01:35:47;;;;;;;14.00;7.05;;;;;;;14.34;100.00;100995.03;2086446;28;20036;-70
2023/03/25 01:37:09;;;;;;;17.90;10.48;;;;;;;14.32;100.00;100992.34;2087712;28;20056;-70
2023/03/25 01:38:31;;;;;;;15.40;8.43;;;;;;;14.29;100.00;100999.44;2076853;28;20060;-70
2023/03/25 01:39:55;;;;;;;15.45;9.38;;;;;;;14.22;100.00;101000.28;2094407;28;20110;-70
2023/03/25 01:41:17;;;;;;;18.50;10.25;;;;;;;14.18;100.00;101003.78;2089445;28;20049;-70
2023/03/25 01:42:40;;;;;;;15.70;6.03;;;;;;;14.14;100.00;100997.59;2077332;28;20041;-69
2023/03/25 01:44:08;;;;;;;15.40;8.05;;;;;;;14.11;100.00;100996.72;2074638;28;20094;-70
2023/03/25 01:45:31;;;;;;;13.00;5.85;;;;;;;14.07;100.00;100989.59;2075185;28;20051;-69
2023/03/25 01:46:54;;;;;;;22.38;8.45;;;;;;;14.10;100.00;100992.28;2077399;28;20148;-70
2023/03/25 01:48:21;;;;;;;20.73;8.50;;;;;;;14.14;100.00;100992.28;2077797;28;20071;-69
2023/03/25 01:49:44;;;;;;;18.65;8.23;;;;;;;14.13;100.00;100990.50;2085836;28;20098;-69
2023/03/25 01:51:12;;;;;;;16.75;8.10;;;;;;;14.10;100.00;100990.50;2082630;28;20041;-70
2023/03/25 01:52:33;;;;;;;13.60;7.32;;;;;;;14.05;100.00;100986.03;2079916;28;20060;-69
2023/03/25 01:53:56;;;;;;;15.98;7.00;;;;;;;14.00;100.00;100986.03;2084347;28;20052;-69
2023/03/25 01:55:19;;;;;;;13.90;7.25;;;;;;;13.96;100.00;100984.25;2085725;28;20037;-69
2023/03/25 01:56:43;;;;;;;16.42;7.80;;;;;;;13.93;100.00;100990.41;2077373;28;20087;-70
2023/03/25 01:58:11;;;;;;;20.48;9.57;;;;;;;13.88;100.00;100989.50;2072719;28;20109;-70
2023/03/25 01:59:33;;;;;;;18.65;9.23;;;;;;;13.82;100.00;100986.81;2071040;28;20099;-69
2023/03/25 02:00:56;;;;;;;15.20;6.88;;;;;;;13.80;100.00;100982.38;2074371;28;20049;-70
2023/03/25 02:02:19;;;;;;;9.18;5.20;;;;;;;13.80;100.00;100985.91;2068086;28;20050;-70
2023/03/25 02:03:45;;;;;;;12.57;5.53;;;;;;;13.80;100.00;100990.31;2065972;28;20088;-69
2023/03/25 02:05:11;;;;;;;13.93;5.75;;;;;;;13.81;100.00;100982.38;2074973;28;20538;-69
2023/03/25 02:06:38;;;;;;;10.63;5.10;;;;;;;13.84;100.00;100992.13;2067922;28;20038;-68
2023/03/25 02:08:04;;;;;;;14.88;5.75;;;;;;;13.83;100.00;100988.59;2086836;28;20049;-69
2023/03/25 02:09:29;;;;;;;10.00;5.25;;;;;;;13.82;100.00;100985.91;2084079;28;20069;-69
2023/03/25 02:10:53;;;;;;;11.95;4.80;;;;;;;13.78;100.00;100989.44;2085510;28;20060;-69
2023/03/25 02:12:14;;;;;;;12.13;4.80;;;;;;;13.74;100.00;100990.28;2079957;28;20176;-69
2023/03/25 02:13:40;;;;;;;9.13;4.70;;;;;;;13.70;100.00;100984.09;2078548;28;20429;-69
2023/03/25 02:15:04;;;;;;;13.50;5.50;;;;;;;13.67;100.00;100984.06;2067897;28;20437;-69
2023/03/25 02:16:34;;;;;;;13.38;6.93;;;;;;;13.69;100.00;100989.38;2067214;28;20057;-69
2023/03/25 02:18:27;;;;;;;11.30;5.75;;;;;;;13.69;100.00;100981.41;2075579;28;20053;-68
2023/03/25 02:20:28;;;;;;;11.20;5.30;;;;;;;13.67;100.00;100988.47;2079327;28;20049;-69
2023/03/25 02:22:24;;;;;;;14.68;7.03;;;;;;;13.61;100.00;100986.66;2064993;28;20054;-69
2023/03/25 02:24:12;;;;;;;14.38;6.38;;;;;;;13.54;100.00;100983.09;2069273;28;20050;-69
2023/03/25 02:26:06;;;;;;;15.35;7.38;;;;;;;13.49;100.00;100979.53;2079830;28;20102;-69
2023/03/25 02:27:45;;;;;;;13.77;7.18;;;;;;;13.41;100.00;100981.22;2094901;28;20211;-69
2023/03/25 02:29:15;;;;;;;14.60;6.72;;;;;;;13.37;100.00;100981.19;2062158;28;20042;-69
2023/03/25 02:30:54;;;;;;;10.45;6.32;;;;;;;13.34;100.00;100992.66;2084646;28;20053;-69
2023/03/25 02:32:36;;;;;;;12.55;5.90;;;;;;;13.32;100.00;100988.25;2064123;28;20586;-69
2023/03/25 02:34:38;;;;;;;13.85;6.32;;;;;;;13.27;100.00;100984.63;2071514;28;20058;-70
2023/03/25 02:36:45;;;;;;;11.88;6.85;;;;;;;13.22;100.00;100981.94;2071274;28;20517;-70
2023/03/25 02:38:31;;;;;;;15.30;7.82;;;;;;;13.23;100.00;100982.84;2078435;28;20041;-70
2023/03/25 02:39:58;;;;;;;14.30;7.70;;;;;;;13.26;100.00;100986.41;2075919;28;20624;-70
2023/03/25 02:41:26;;;;;;;13.70;6.40;;;;;;;13.31;100.00;100999.72;2073038;28;20091;-69
2023/03/25 02:42:58;;;;;;;15.20;6.80;;;;;;;13.36;100.00;100997.97;2068816;28;20042;-69
2023/03/25 02:44:30;;;;;;;12.05;6.38;;;;;;;13.41;100.00;100993.59;2067586;28;20091;-69
2023/03/25 02:45:57;;;;;;;11.80;6.07;;;;;;;13.43;100.00;100995.38;2076549;28;20150;-69
2023/03/25 02:47:23;;;;;;;13.02;5.47;;;;;;;13.48;100.00;100998.97;2069533;28;20054;-69
2023/03/25 02:48:51;;;;;;;9.77;4.80;;;;;;;13.55;100.00;101002.53;2075381;28;20045;-69
2023/03/25 02:50:19;;;;;;;8.77;3.70;;;;;;;13.57;100.00;100999.03;2069617;28;20139;-69
2023/03/25 02:51:48;;;;;;;12.90;4.53;;;;;;;13.62;100.00;101003.47;2081803;28;20135;-69
2023/03/25 02:53:17;;;;;;;9.88;4.80;;;;;;;13.64;100.00;100994.66;2069060;28;20120;-69
2023/03/25 02:54:44;;;;;;;8.77;4.80;;;;;;;13.66;100.00;101000.84;2070787;28;20049;-70
2023/03/25 02:56:09;;;;;;;8.13;4.47;;;;;;;13.69;100.00;101000.88;2068785;28;20112;-69
2023/03/25 02:57:35;;;;;;;12.75;4.47;;;;;;;13.69;100.00;101005.28;2075363;28;20133;-69
2023/03/25 02:58:56;;;;;;;8.95;4.93;;;;;;;13.66;100.00;100995.53;2077478;28;20077;-69
2023/03/25 03:00:25;;;;;;;9.95;4.88;;;;;;;13.65;100.00;100996.44;2071776;28;20052;-69
2023/03/25 03:01:49;;;;;;;12.43;4.90;;;;;;;13.63;100.00;100997.28;2078009;28;20061;-69
2023/03/25 03:03:12;;;;;;;10.60;5.10;;;;;;;13.62;100.00;100993.75;2069374;28;20121;-69
2023/03/25 03:04:46;;;;;;;8.90;4.40;;;;;;;13.63;100.00;100992.88;2075778;28;20049;-69
2023/03/25 03:06:15;;;;;;;8.15;4.60;;;;;;;13.63;100.00;101003.50;2071054;28;20038;-70
2023/03/25 03:07:42;;;;;;;10.57;5.18;;;;;;;13.65;100.00;100995.56;2066855;28;20046;-69
2023/03/25 03:09:26;;;;;;;12.65;5.10;;;;;;;13.65;100.00;101003.50;2069223;28;20053;-69
2023/03/25 03:11:02;;;;;;;9.13;5.20;;;;;;;13.69;100.00;101000.00;2079358;28;20053;-70
2023/03/25 03:12:41;;;;;;;9.75;5.32;;;;;;;13.69;100.00;100994.69;2074251;28;20128;-69
2023/03/25 03:14:23;;;;;;;10.43;4.78;;;;;;;13.69;100.00;101000.88;2080756;28;20114;-69
2023/03/25 03:15:56;;;;;;;12.10;5.50;;;;;;;13.68;100.00;100999.09;2079631;28;20041;-68
2023/03/25 03:17:24;;;;;;;12.02;4.90;;;;;;;13.67;100.00;100999.09;2078953;28;20964;-69
2023/03/25 03:18:57;;;;;;;9.43;4.30;;;;;;;13.69;100.00;100990.25;2078032;28;20048;-69
2023/03/25 03:20:31;;;;;;;8.35;4.03;;;;;;;13.74;100.00;100991.19;2086386;28;20053;-69
2023/03/25 03:22:00;;;;;;;8.65;4.50;;;;;;;13.80;100.00;100998.28;2079123;28;20096;-69
2023/03/25 03:23:27;;;;;;;9.85;4.65;;;;;;;13.81;100.00;100997.41;2064764;28;20054;-69
2023/03/25 03:24:54;;;;;;;13.60;4.72;;;;;;;13.86;100.00;100996.56;2077134;28;20050;-70
2023/03/25 03:26:27;;;;;;;10.98;5.88;;;;;;;13.90;100.00;100993.06;2076503;28;20096;-69
2023/03/25 03:27:54;;;;;;;12.07;4.55;;;;;;;13.93;100.00;101002.78;2079658;28;20556;-69
2023/03/25 03:29:18;;;;;;;10.20;4.95;;;;;;;13.94;100.00;100993.94;2083931;28;20534;-69
2023/03/25 03:30:47;;;;;;;8.77;4.38;;;;;;;13.96;100.00;100992.19;2080638;28;20074;-70
2023/03/25 03:32:12;;;;;;;7.00;4.43;;;;;;;13.96;100.00;100987.78;2078915;28;20505;-69
2023/03/25 03:33:40;;;;;;;9.95;4.38;;;;;;;14.01;100.00;100994.88;2078793;28;20045;-68
2023/03/25 03:35:07;;;;;;;11.68;5.20;;;;;;;14.04;100.00;100989.59;2078619;28;20053;-69
2023/03/25 03:36:35;;;;;;;8.05;4.05;;;;;;;14.07;100.00;100992.25;2070899;28;20054;-69
2023/03/25 03:38:03;;;;;;;14.07;5.60;;;;;;;14.08;100.00;100991.38;2095534;28;20040;-69
2023/03/25 03:39:30;;;;;;;10.98;5.55;;;;;;;14.04;100.00;100998.44;2090903;28;20389;-69
2023/03/25 03:40:57;;;;;;;13.75;7.50;;;;;;;13.97;100.00;100996.63;2086254;28;20049;-69
2023/03/25 03:42:26;;;;;;;10.80;5.18;;;;;;;13.93;100.00;100994.81;2087043;28;20048;-70
2023/03/25 03:43:50;;;;;;;14.82;4.90;;;;;;;13.95;100.00;100995.72;2085647;28;20110;-69
2023/03/25 03:45:18;;;;;;;9.82;4.45;;;;;;;13.98;100.00;101011.66;2078484;28;20037;-70
2023/03/25 03:46:45;;;;;;;8.85;4.97;;;;;;;13.97;100.00;101007.25;2087167;28;20060;-69
2023/03/25 03:48:12;;;;;;;11.75;5.40;;;;;;;13.95;100.00;101003.69;2086238;28;20385;-69
2023/03/25 03:49:38;;;;;;;7.53;4.38;;;;;;;13.93;100.00;100997.47;2080927;28;20061;-70
2023/03/25 03:51:08;;;;;;;10.98;5.15;;;;;;;13.90;100.00;101002.78;2077315;28;20041;-69
2023/03/25 03:52:33;;;;;;;15.55;8.43;;;;;;;13.85;100.00;101000.09;2079259;28;20041;-70
2023/03/25 03:53:59;;;;;;;15.45;11.00;;;;;;;13.81;100.00;101008.91;2086676;28;20057;-70
2023/03/25 03:55:27;;;;;;;19.70;15.52;;;;;;;13.82;100.00;101004.50;2071761;28;20099;-69
2023/03/25 03:56:54;;;;;;;17.67;10.70;;;;;;;13.83;100.00;101003.63;2076669;28;20053;-70
2023/03/25 03:58:23;;;;;;;15.43;8.77;;;;;;;13.82;100.00;101009.81;2087672;28;20044;-69
2023/03/25 03:59:52;;;;;;;12.75;9.48;;;;;;;13.79;100.00;101010.66;2079032;28;20045;-69
2023/03/25 04:01:29;;;;;;;14.45;6.93;;;;;;;13.77;100.00;101011.56;2062188;28;20781;-69
2023/03/25 04:02:57;;;;;;;12.68;7.30;;;;;;;13.76;100.00;101015.97;2070559;28;20125;-69
2023/03/25 04:04:21;;;;;;;17.83;7.60;;;;;;;13.74;100.00;101022.13;2080623;28;20548;-70
2023/03/25 04:05:54;;;;;;;13.40;7.35;;;;;;;13.71;100.00;101008.84;2080366;28;20518;-70
2023/03/25 04:07:20;;;;;;;14.02;7.82;;;;;;;13.69;100.00;101008.84;2083311;28;20053;-70
2023/03/25 04:08:51;;;;;;;11.52;7.40;;;;;;;13.67;100.00;101015.00;2071283;28;20105;-70
2023/03/25 04:10:20;;;;;;;11.93;6.95;;;;;;;13.61;100.00;101013.19;2086193;28;20055;-69
2023/03/25 04:11:46;;;;;;;12.00;6.97;;;;;;;13.57;100.00;101007.00;2079781;28;20034;-70
2023/03/25 04:13:12;;;;;;;16.30;7.53;;;;;;;13.52;100.00;101008.69;2084965;28;20040;-69
2023/03/25 04:14:37;;;;;;;15.55;7.30;;;;;;;13.48;100.00;101012.22;2085226;28;20049;-69
2023/03/25 04:16:01;;;;;;;15.02;6.38;;;;;;;13.42;100.00;101016.59;2078573;28;20044;-69
2023/03/25 04:17:24;;;;;;;12.73;6.15;;;;;;;13.35;100.00;101015.66;2083760;28;20091;-70
2023/03/25 04:18:47;;;;;;;13.38;6.47;;;;;;;13.33;100.00;101016.50;2080533;28;20060;-69
2023/03/25 04:20:14;;;;;;;17.35;6.72;;;;;;;13.32;100.00;101015.63;2081234;28;20036;-69
2023/03/25 04:21:36;;;;;;;13.55;6.18;;;;;;;13.32;100.00;101020.94;2078097;28;20104;-69
2023/03/25 04:22:59;;;;;;;16.38;6.70;;;;;;;13.35;100.00;101018.31;2076979;28;20042;-70
2023/03/25 04:24:23;;;;;;;13.10;6.40;;;;;;;13.37;100.00;101023.63;2071652;28;20042;-69
2023/03/25 04:25:46;;;;;;;14.18;6.35;;;;;;;13.37;100.00;101020.97;2074095;28;20120;-70
2023/03/25 04:27:12;;;;;;;10.73;5.70;;;;;;;13.36;100.00;101022.72;2076511;28;20073;-70
2023/03/25 04:28:35;;;;;;;15.63;6.47;;;;;;;13.36;100.00;101013.88;2076436;28;20053;-70
2023/03/25 04:30:00;;;;;;;12.82;6.68;;;;;;;13.36;100.00;101024.50;2078045;28;20053;-69
2023/03/25 04:31:21;;;;;;;12.95;7.25;;;;;;;13.34;100.00;101018.28;2079941;28;20717;-69
2023/03/25 04:32:45;;;;;;;11.23;6.60;;;;;;;13.31;100.00;101024.47;2075763;28;20057;-69
2023/03/25 04:34:06;;;;;;;14.10;6.38;;;;;;;13.27;100.00;101017.34;2085083;28;20136;-70
2023/03/25 04:35:31;;;;;;;14.98;6.65;;;;;;;13.23;100.00;101017.31;2082147;28;20087;-70
2023/03/25 04:36:54;;;;;;;12.68;6.30;;;;;;;13.20;100.00;101018.16;2074727;28;20072;-69
2023/03/25 04:38:15;;;;;;;12.45;6.53;;;;;;;13.21;100.00;101024.34;2061356;28;20053;-70
2023/03/25 04:39:38;;;;;;;18.92;10.30;;;;;;;13.19;100.00;101026.13;2074897;28;20316;-70
2023/03/25 04:41:00;;;;;;;22.15;14.70;;;;;;;13.16;100.00;101030.50;2078636;28;20048;-69
2023/03/25 04:42:24;;;;;;;25.35;19.48;;;;;;;13.18;100.00;101019.94;2077046;28;20038;-69
2023/03/25 04:43:48;;;;;;;21.30;15.70;;;;;;;13.25;100.00;101026.19;2068289;28;20064;-69
2023/03/25 04:45:15;;;;;;;21.73;13.75;;;;;;;13.31;100.00;101024.47;2074327;28;20045;-69
2023/03/25 04:46:38;;;;;;;18.50;11.60;;;;;;;13.34;100.00;101023.59;2069904;28;20084;-70
2023/03/25 04:47:59;;;;;;;15.23;10.27;;;;;;;13.36;100.00;101029.81;2092323;28;20616;-70
2023/03/25 04:49:23;;;;;;;18.73;10.88;;;;;;;13.36;100.00;101029.81;2082506;28;20046;-70
2023/03/25 04:50:45;;;;;;;17.25;9.13;;;;;;;13.36;100.00;101033.34;2076357;28;20516;-68
2023/03/25 04:52:08;;;;;;;21.15;11.05;;;;;;;13.37;100.00;101037.78;2076542;28;20046;-68
2023/03/25 04:53:30;;;;;;;15.85;9.82;;;;;;;13.37;100.00;101031.59;2076612;28;20394;-71
2023/03/25 04:54:52;;;;;;;;;;;;;;;13.33;100.00;101035.94;2072459;28;20060;-70
2023/03/25 04:56:16;;;;;;;17.27;9.90;;;;;;;13.39;100.00;101036.00;2075903;28;20582;-69
2023/03/25 04:57:38;;;;;;;14.90;7.50;;;;;;;13.45;100.00;101041.38;2062518;28;20057;-69
2023/03/25 04:59:01;;;;;;;14.02;7.72;;;;;;;13.47;100.00;101041.38;2080505;28;20103;-70
2023/03/25 05:00:24;;;;;;;13.27;6.88;;;;;;;13.50;100.00;101038.75;2077789;28;20154;-70
2023/03/25 05:01:48;;;;;;;15.68;7.00;;;;;;;13.54;100.00;101040.56;2079836;28;20087;-69
2023/03/25 05:03:10;;;;;;;12.25;7.30;;;;;;;13.65;100.00;101045.97;2094132;28;20044;-69
2023/03/25 05:04:34;;;;;;;16.60;7.82;;;;;;;13.72;100.00;101042.47;2081594;28;20048;-69
2023/03/25 05:05:56;;;;;;;11.90;6.20;;;;;;;13.76;100.00;101045.16;2066084;28;20696;-69
2023/03/25 05:07:18;;;;;;;14.70;5.43;;;;;;;13.79;100.00;101036.31;2066228;28;20050;-69
2023/03/25 05:08:40;;;;;;;9.68;5.95;;;;;;;13.79;100.00;101041.59;2083032;28;20436;-69
2023/03/25 05:10:01;;;;;;;11.50;5.95;;;;;;;13.80;100.00;101040.75;2071702;28;20046;-70
2023/03/25 05:11:25;;;;;;;9.88;5.95;;;;;;;13.81;100.00;101045.19;2070941;28;21075;-70
2023/03/25 05:12:46;;;;;;;12.15;5.53;;;;;;;13.81;100.00;101039.88;2072574;28;20743;-70
2023/03/25 05:14:09;;;;;;;10.90;5.82;;;;;;;13.86;100.00;101051.41;2072969;28;20136;-70
2023/03/25 05:15:38;;;;;;;13.48;6.25;;;;;;;13.96;100.00;101051.47;2076320;28;20672;-69
2023/03/25 05:17:00;;;;;;;13.73;6.65;;;;;;;14.10;100.00;101050.69;2069766;28;20046;-70
2023/03/25 05:18:21;;;;;;;16.88;7.57;;;;;;;14.20;100.00;101041.88;2072806;28;20136;-69
2023/03/25 05:19:44;;;;;;;14.93;7.60;;;;;;;14.29;100.00;101052.56;2071421;28;20057;-70
2023/03/25 05:21:07;;;;;;;13.30;7.15;;;;;;;14.38;100.00;101051.72;2070449;28;20038;-69
2023/03/25 05:22:30;;;;;;;12.05;6.53;;;;;;;14.44;100.00;101052.63;2077837;28;20083;-70
2023/03/25 05:23:52;;;;;;;10.95;6.60;;;;;;;14.49;100.00;101055.34;2071360;28;20069;-70
2023/03/25 05:25:14;;;;;;;10.60;6.35;;;;;;;14.53;100.00;101057.13;2074240;28;20083;-69
2023/03/25 05:26:38;;;;;;;17.05;11.07;;;;;;;14.56;100.00;101047.41;2077323;28;20061;-70
2023/03/25 05:28:04;;;;;;;19.40;14.40;;;;;;;14.57;100.00;101053.59;2061689;28;20050;-69
2023/03/25 05:29:26;;;;;;;20.65;13.98;;;;;;;14.60;100.00;101053.59;2084087;28;20051;-69
2023/03/25 05:30:50;;;;;;;14.43;9.50;;;;;;;14.68;100.00;101046.56;2083817;28;20057;-69
2023/03/25 05:32:16;;;;;;;18.58;11.43;;;;;;;14.73;100.00;101050.09;2073384;28;20045;-69
2023/03/25 05:33:41;;;;;;;17.13;11.40;;;;;;;14.78;100.00;101051.00;2088010;28;20071;-69
2023/03/25 05:35:04;;;;;;;16.35;11.77;;;;;;;14.81;100.00;101047.47;2088394;28;20072;-69
2023/03/25 05:36:27;;;;;;;22.08;14.45;;;;;;;14.82;100.00;101054.56;2082427;28;20432;-69
2023/03/25 05:37:49;;;;;;;18.58;12.23;;;;;;;14.75;100.00;101054.56;2077116;28;20045;-69
2023/03/25 05:39:11;;;;;;;19.48;11.68;;;;;;;14.70;100.00;101050.97;2081292;28;20068;-69
2023/03/25 05:40:34;;;;;;;16.77;9.35;;;;;;;14.69;100.00;101049.22;2082358;28;20071;-69
2023/03/25 05:42:02;;;;;;;11.07;6.13;;;;;;;14.70;100.00;101055.44;2061012;28;20140;-69
2023/03/25 05:43:24;;;;;;;17.33;6.60;;;;;;;14.71;100.00;101051.84;2076187;28;20303;-69
2023/03/25 05:44:49;;;;;;;15.80;7.30;;;;;;;14.71;100.00;101058.06;2080020;28;20406;-69
2023/03/25 05:46:14;;;;;;;14.50;7.15;;;;;;;14.71;100.00;101058.06;2075169;28;20077;-69
2023/03/25 05:47:36;;;;;;;11.20;7.00;;;;;;;14.75;100.00;101057.22;2077136;28;20095;-69
2023/03/25 05:48:59;;;;;;;12.63;6.35;;;;;;;14.88;100.00;101058.13;2076310;28;20042;-70
2023/03/25 05:50:21;;;;;;;10.30;5.15;;;;;;;15.06;100.00;101055.50;2075791;28;20053;-70
2023/03/25 05:51:43;;;;;;;12.30;5.82;;;;;;;15.23;100.00;101055.53;2077401;28;20453;-70
2023/03/25 05:53:05;;;;;;;14.95;6.53;;;;;;;15.47;100.00;101057.34;2076210;28;20132;-70
2023/03/25 05:54:27;;;;;;;10.32;6.47;;;;;;;15.67;100.00;101060.03;2067438;28;20145;-69
2023/03/25 05:55:54;;;;;;;14.48;5.82;;;;;;;15.85;100.00;101060.00;2072295;28;20169;-69
2023/03/25 05:57:16;;;;;;;14.73;5.65;;;;;;;15.92;100.00;101053.78;2069151;28;20112;-69
2023/03/25 05:58:38;;;;;;;11.70;6.07;;;;;;;15.95;100.00;101048.44;2074802;28;20084;-69
2023/03/25 06:00:03;;;;;;;12.48;7.25;;;;;;;15.94;100.00;101058.25;2067004;28;20077;-70
2023/03/25 06:01:36;;;;;;;14.13;6.30;;;;;;;15.89;100.00;101052.00;2077654;28;20045;-69
2023/03/25 06:02:58;;;;;;;14.00;6.80;;;;;;;15.91;100.00;101058.22;2069024;28;20042;-69
2023/03/25 06:04:20;;;;;;;9.68;5.53;;;;;;;15.97;100.00;101056.44;2074125;28;20075;-70
2023/03/25 06:05:41;;;;;;;12.15;5.22;;;;;;;15.99;100.00;101063.53;2081833;28;20049;-69
2023/03/25 06:07:12;;;;;;;10.73;5.50;;;;;;;15.95;100.00;101057.31;2092019;28;20051;-69
2023/03/25 06:08:35;;;;;;;10.40;5.57;;;;;;;15.92;100.00;101062.66;2080753;28;20222;-69
2023/03/25 06:09:56;;;;;;;9.20;5.30;;;;;;;15.90;100.00;101063.53;2078151;28;20700;-70
2023/03/25 06:11:20;;;;;;;10.70;6.05;;;;;;;15.90;100.00;101064.44;2073906;28;20146;-70
2023/03/25 06:12:44;;;;;;;11.63;6.05;;;;;;;16.10;100.00;101068.84;2073123;28;20041;-69
2023/03/25 06:14:05;;;;;;;8.45;5.07;;;;;;;16.32;100.00;101066.13;2066998;28;20133;-69
2023/03/25 06:15:32;;;;;;;9.98;4.82;;;;;;;16.56;100.00;101066.91;2089432;28;20118;-70
2023/03/25 06:16:56;;;;;;;6.72;4.22;;;;;;;16.89;100.00;101065.91;2080058;28;20485;-69
2023/03/25 06:18:21;;;;;;;7.38;4.00;;;;;;;17.19;100.00;101060.41;2077345;28;20050;-70
2023/03/25 06:19:42;;;;;;;6.05;3.63;;;;;;;17.59;100.00;101065.47;2078831;28;20045;-70
2023/03/25 06:21:05;;;;;;;6.35;3.28;;;;;;;17.96;100.00;101061.56;2076209;28;20060;-67
2023/03/25 06:22:27;;;;;;;8.63;3.85;;;;;;;18.34;100.00;101058.50;2071211;28;20050;-67
2023/03/25 06:23:50;;;;;;;9.43;3.25;;;;;;;18.68;100.00;101059.00;2071596;28;20057;-67
2023/03/25 06:25:16;;;;;;;9.98;3.92;;;;;;;18.91;100.00;101053.34;2074703;28;20053;-68
2023/03/25 06:26:39;;;;;;;7.95;3.65;;;;;;;18.88;100.00;101056.94;2070763;28;20083;-67
2023/03/25 06:28:02;;;;;;;5.60;3.17;;;;;;;18.89;100.00;101052.50;2074695;28;20053;-67
2023/03/25 06:29:25;;;;;;;7.90;4.47;;;;;;;18.91;100.00;101056.91;2077548;28;20095;-67
2023/03/25 06:30:48;;;;;;;7.72;3.65;;;;;;;18.78;100.00;101062.44;2085631;28;20509;-67